createdAt,value
2019-05-23T00:01:00.627Z,30.30
2019-05-23T00:03:33.322Z,28.57
2019-05-23T00:06:08.927Z,27.73
2019-05-23T00:08:37.916Z,30.77
2019-05-23T00:11:29.387Z,27.22
2019-05-23T00:13:57.684Z,20.25
2019-05-23T00:16:27.720Z,21.50
2019-05-23T00:18:57.310Z,22.25
2019-05-23T00:21:26.034Z,20.95
2019-05-23T00:23:54.859Z,19.12
2019-05-23T00:26:23.627Z,19.60
2019-05-23T00:29:08.761Z,20.60
2019-05-23T00:31:26.357Z,21.50
2019-05-23T00:33:54.920Z,17.52
2019-05-23T00:36:24.619Z,18.73
2019-05-23T00:38:52.942Z,15.00
2019-05-23T00:41:23.785Z,15.08
2019-05-23T00:43:52.754Z,15.78
2019-05-23T00:46:21.377Z,16.17
2019-05-23T00:48:51.059Z,14.90
2019-05-23T00:51:21.484Z,11.88
2019-05-23T00:53:50.908Z,12.98
2019-05-23T00:56:20.410Z,13.53
2019-05-23T00:58:49.385Z,14.05
2019-05-23T01:01:18.533Z,11.93
2019-05-23T01:03:47.186Z,13.35
2019-05-23T01:06:15.828Z,14.78
2019-05-23T01:08:44.569Z,19.25
2019-05-23T01:11:13.179Z,15.03
2019-05-23T01:13:41.584Z,14.25
2019-05-23T01:16:10.641Z,16.17
2019-05-23T01:18:39.020Z,16.02
2019-05-23T01:21:11.310Z,15.13
2019-05-23T01:23:50.071Z,15.60
2019-05-23T01:26:19.267Z,13.53
2019-05-23T01:28:48.060Z,18.02
2019-05-23T01:31:23.674Z,17.52
2019-05-23T01:33:53.091Z,15.23
2019-05-23T01:36:21.493Z,14.60
2019-05-23T01:38:49.732Z,15.00
2019-05-23T01:41:17.941Z,18.60
2019-05-23T01:47:16.507Z,16.30
2019-05-23T01:49:44.735Z,19.80
2019-05-23T01:52:13.419Z,16.77
2019-05-23T01:54:42.388Z,22.52
2019-05-23T01:57:10.680Z,19.67
2019-05-23T01:59:38.999Z,17.33
2019-05-23T02:02:07.659Z,18.30
2019-05-23T02:04:36.085Z,16.90
2019-05-23T02:07:05.028Z,20.82
2019-05-23T02:09:33.245Z,17.65
2019-05-23T02:12:01.721Z,19.35
2019-05-23T02:14:30.109Z,17.07
2019-05-23T02:16:58.337Z,17.77
2019-05-23T02:19:26.587Z,19.23
2019-05-23T02:21:55.767Z,20.68
2019-05-23T02:24:24.254Z,18.90
2019-05-23T02:26:52.501Z,16.75
2019-05-23T02:29:20.805Z,16.10
2019-05-23T02:31:49.658Z,17.82
2019-05-23T02:34:18.852Z,19.37
2019-05-23T02:36:48.414Z,19.25
2019-05-23T02:39:18.365Z,18.12
2019-05-23T02:42:04.305Z,19.03
2019-05-23T02:44:34.164Z,18.17
2019-05-23T02:47:04.026Z,19.50
2019-05-23T02:49:34.534Z,19.27
2019-05-23T02:52:34.693Z,20.32
2019-05-23T02:55:03.576Z,21.12
2019-05-23T02:57:32.554Z,28.07
2019-05-23T03:00:27.051Z,18.80
2019-05-23T03:02:59.779Z,19.65
2019-05-23T03:05:28.332Z,21.63
2019-05-23T03:07:56.819Z,26.12
2019-05-23T03:10:27.487Z,23.73
2019-05-23T03:12:58.088Z,29.25
2019-05-23T03:15:27.375Z,27.45
2019-05-23T03:17:55.744Z,29.75
2019-05-23T03:20:23.995Z,24.37
2019-05-23T03:23:08.654Z,26.87
2019-05-23T03:25:40.703Z,24.70
2019-05-23T03:28:09.806Z,25.92
2019-05-23T03:31:25.258Z,24.12
2019-05-23T03:33:28.585Z,28.83
2019-05-23T03:35:59.834Z,27.93
2019-05-23T03:38:28.206Z,30.27
2019-05-23T03:40:56.420Z,29.10
2019-05-23T03:43:25.677Z,26.33
2019-05-23T03:45:56.602Z,26.80
2019-05-23T03:48:24.810Z,29.92
2019-05-23T03:50:54.756Z,24.00
2019-05-23T03:53:25.588Z,27.48
2019-05-23T03:55:53.994Z,23.52
2019-05-23T03:58:23.005Z,26.42
2019-05-23T04:00:53.261Z,24.72
2019-05-23T04:03:22.427Z,22.95
2019-05-23T04:05:51.080Z,24.23
2019-05-23T04:08:20.961Z,23.87
2019-05-23T04:10:51.812Z,20.62
2019-05-23T04:13:19.679Z,21.97
2019-05-23T04:15:50.772Z,22.50
2019-05-23T04:18:18.996Z,20.15
2019-05-23T04:20:47.243Z,18.75
2019-05-23T04:23:16.753Z,22.02
2019-05-23T04:25:45.055Z,22.37
2019-05-23T04:28:13.290Z,20.48
2019-05-23T04:30:41.514Z,21.07
2019-05-23T04:33:09.914Z,21.05
2019-05-23T04:35:38.345Z,16.90
2019-05-23T04:38:07.142Z,20.50
2019-05-23T04:40:35.638Z,20.00
2019-05-23T04:43:03.905Z,19.17
2019-05-23T04:45:33.656Z,16.87
2019-05-23T04:48:01.918Z,22.05
2019-05-23T04:50:30.808Z,20.53
2019-05-23T04:52:59.629Z,20.15
2019-05-23T04:55:28.625Z,20.80
2019-05-23T04:57:57.626Z,19.12
2019-05-23T05:00:25.848Z,16.82
2019-05-23T05:02:54.647Z,18.60
2019-05-23T05:05:23.399Z,19.00
2019-05-23T05:07:51.685Z,17.57
2019-05-23T05:10:22.243Z,21.77
2019-05-23T05:12:50.725Z,21.12
2019-05-23T05:15:19.834Z,19.23
2019-05-23T05:17:48.420Z,21.68
2019-05-23T05:20:16.758Z,19.85
2019-05-23T05:22:45.744Z,18.75
2019-05-23T05:25:14.055Z,19.25
2019-05-23T05:27:42.308Z,20.20
2019-05-23T05:30:10.554Z,19.60
2019-05-23T05:32:44.742Z,18.77
2019-05-23T05:35:09.425Z,16.90
2019-05-23T05:37:37.798Z,17.27
2019-05-23T05:40:06.624Z,19.52
2019-05-23T05:42:35.955Z,19.25
2019-05-23T05:45:09.259Z,18.60
2019-05-23T05:47:38.118Z,19.30
2019-05-23T05:50:10.992Z,17.07
2019-05-23T05:52:41.298Z,19.05
2019-05-23T05:55:10.487Z,16.20
2019-05-23T05:57:39.048Z,18.05
2019-05-23T06:00:12.901Z,19.20
2019-05-23T06:02:39.876Z,18.53
2019-05-23T06:05:10.425Z,18.42
2019-05-23T06:07:42.164Z,18.12
2019-05-23T06:10:15.011Z,17.42
2019-05-23T06:12:43.256Z,19.90
2019-05-23T06:15:11.485Z,17.90
2019-05-23T06:17:39.695Z,16.75
2019-05-23T06:20:08.209Z,15.63
2019-05-23T06:22:37.119Z,19.35
2019-05-23T06:25:07.111Z,15.30
2019-05-23T06:27:35.694Z,15.70
2019-05-23T06:30:08.164Z,14.53
2019-05-23T06:32:36.806Z,14.07
2019-05-23T06:35:06.825Z,14.00
2019-05-23T06:37:35.811Z,12.80
2019-05-23T06:40:09.197Z,14.60
2019-05-23T06:45:07.587Z,12.70
2019-05-23T06:47:35.973Z,11.33
2019-05-23T06:50:06.677Z,11.43
2019-05-23T06:52:34.868Z,16.37
2019-05-23T06:55:03.090Z,11.48
2019-05-23T06:57:31.308Z,11.55
2019-05-23T06:59:59.806Z,11.63
2019-05-23T07:02:31.825Z,11.67
2019-05-23T07:04:58.083Z,9.03
2019-05-23T07:07:26.473Z,10.03
2019-05-23T07:09:54.690Z,9.17
2019-05-23T07:12:22.943Z,8.78
2019-05-23T07:14:51.157Z,9.30
2019-05-23T07:17:20.557Z,8.20
2019-05-23T07:19:48.776Z,9.15
2019-05-23T07:22:18.943Z,8.98
2019-05-23T07:24:57.561Z,7.17
2019-05-23T07:27:17.292Z,9.10
2019-05-23T07:29:45.523Z,7.65
2019-05-23T07:32:14.065Z,8.28
2019-05-23T07:34:42.291Z,10.32
2019-05-23T07:37:10.533Z,10.25
2019-05-23T07:39:38.835Z,7.67
2019-05-23T07:42:08.098Z,7.70
2019-05-23T07:44:48.021Z,8.50
2019-05-23T07:47:08.676Z,8.78
2019-05-23T07:49:36.926Z,6.78
2019-05-23T07:52:05.292Z,7.83
2019-05-23T07:54:35.725Z,8.58
2019-05-23T07:57:05.575Z,9.00
2019-05-23T07:59:34.188Z,7.27
2019-05-23T08:02:10.141Z,6.92
2019-05-23T08:04:38.818Z,9.68
2019-05-23T08:07:07.399Z,5.60
2019-05-23T08:09:35.616Z,5.70
2019-05-23T08:12:04.096Z,6.67
2019-05-23T08:14:32.330Z,6.37
2019-05-23T08:17:00.545Z,6.15
2019-05-23T08:19:28.797Z,7.72
2019-05-23T08:21:57.038Z,6.67
2019-05-23T08:24:25.262Z,7.40
2019-05-23T08:26:54.735Z,8.33
2019-05-23T08:29:26.059Z,5.05
2019-05-23T08:31:52.918Z,6.00
2019-05-23T08:34:39.591Z,4.15
2019-05-23T08:36:51.447Z,6.75
2019-05-23T08:39:20.173Z,5.37
2019-05-23T08:41:48.859Z,5.90
2019-05-23T08:44:17.252Z,4.53
2019-05-23T08:46:45.670Z,4.83
2019-05-23T08:49:14.136Z,4.62
2019-05-23T08:51:42.364Z,4.15
2019-05-23T08:54:10.845Z,4.08
2019-05-23T08:56:39.176Z,5.93
2019-05-23T08:59:09.022Z,5.05
2019-05-23T09:01:37.264Z,7.25
2019-05-23T09:04:06.912Z,5.30
2019-05-23T09:06:35.206Z,3.50
2019-05-23T09:09:27.552Z,4.67
2019-05-23T09:11:35.901Z,6.55
2019-05-23T09:14:04.929Z,5.47
2019-05-23T09:16:33.391Z,4.80
2019-05-23T09:19:01.736Z,4.75
2019-05-23T09:21:30.258Z,4.97
2019-05-23T09:23:58.459Z,6.22
2019-05-23T09:26:27.134Z,3.87
2019-05-23T09:28:55.368Z,5.47
2019-05-23T09:31:24.579Z,5.33
2019-05-23T09:33:52.816Z,5.47
2019-05-23T09:36:21.027Z,5.40
2019-05-23T09:38:49.312Z,5.70
2019-05-23T09:41:17.553Z,4.35
2019-05-23T09:43:45.764Z,4.45
2019-05-23T09:46:14.023Z,6.50
2019-05-23T09:48:42.532Z,5.97
2019-05-23T09:51:10.738Z,5.42
2019-05-23T09:53:39.082Z,6.83
2019-05-23T09:56:07.300Z,5.50
2019-05-23T09:58:35.546Z,6.33
2019-05-23T10:01:04.155Z,3.87
2019-05-23T10:03:32.380Z,4.05
2019-05-23T10:06:00.605Z,4.47
2019-05-23T10:08:28.856Z,4.90
2019-05-23T10:10:57.073Z,4.37
2019-05-23T10:13:38.291Z,3.98
2019-05-23T10:16:00.217Z,4.60
2019-05-23T10:18:28.789Z,4.58
2019-05-23T10:20:57.054Z,5.58
2019-05-23T10:23:25.455Z,4.58
2019-05-23T10:25:53.717Z,5.53
2019-05-23T10:28:21.988Z,6.80
2019-05-23T10:30:50.201Z,5.75
2019-05-23T10:33:18.450Z,4.75
2019-05-23T10:35:59.973Z,5.00
2019-05-23T10:38:17.523Z,6.62
2019-05-23T10:40:45.753Z,5.85
2019-05-23T10:43:13.978Z,6.37
2019-05-23T10:45:42.203Z,5.37
2019-05-23T10:48:12.025Z,4.00
2019-05-23T10:50:44.874Z,4.87
2019-05-23T10:53:10.191Z,4.53
2019-05-23T10:55:38.494Z,4.30
2019-05-23T10:58:06.727Z,4.55
2019-05-23T11:00:35.916Z,4.47
2019-05-23T11:03:05.446Z,5.75
2019-05-23T11:05:33.644Z,3.93
2019-05-23T11:08:02.736Z,4.42
2019-05-23T11:10:31.018Z,4.53
2019-05-23T11:12:59.270Z,4.33
2019-05-23T11:15:27.489Z,5.40
2019-05-23T11:17:56.238Z,5.93
2019-05-23T11:20:24.438Z,4.50
2019-05-23T11:22:52.664Z,5.22
2019-05-23T11:25:22.522Z,7.22
2019-05-23T11:27:50.747Z,6.87
2019-05-23T11:30:23.090Z,4.95
2019-05-23T11:32:51.316Z,5.67
2019-05-23T11:35:19.542Z,4.72
2019-05-23T11:37:47.766Z,5.05
2019-05-23T11:40:16.102Z,5.75
2019-05-23T11:42:44.327Z,4.55
2019-05-23T11:45:12.903Z,5.00
2019-05-23T11:47:41.561Z,6.47
2019-05-23T11:50:09.765Z,6.60
2019-05-23T11:52:38.094Z,5.08
2019-05-23T11:55:07.074Z,4.33
2019-05-23T11:57:37.769Z,6.90
2019-05-23T12:00:10.091Z,5.33
2019-05-23T12:02:42.844Z,4.62
2019-05-23T12:05:12.967Z,4.53
2019-05-23T12:07:41.459Z,5.28
2019-05-23T12:10:10.602Z,5.22
2019-05-23T12:12:38.835Z,6.45
2019-05-23T12:15:09.567Z,6.00
2019-05-23T12:17:37.868Z,6.23
2019-05-23T12:20:07.135Z,5.15
2019-05-23T12:22:35.952Z,6.00
2019-05-23T12:25:21.059Z,6.37
2019-05-23T12:27:36.625Z,7.17
2019-05-23T12:30:07.447Z,5.17
2019-05-23T12:32:35.674Z,7.03
2019-05-23T12:35:10.884Z,4.65
2019-05-23T12:37:36.026Z,4.73
2019-05-23T12:40:06.310Z,5.37
2019-05-23T12:42:34.570Z,6.10
2019-05-23T12:45:03.594Z,5.17
2019-05-23T12:47:45.772Z,5.08
2019-05-23T12:50:18.264Z,4.95
2019-05-23T12:52:46.521Z,5.28
2019-05-23T12:55:14.761Z,5.25
2019-05-23T12:57:42.960Z,6.12
2019-05-23T13:00:15.383Z,5.60
2019-05-23T13:02:43.591Z,5.60
2019-05-23T13:05:12.319Z,5.95
2019-05-23T13:07:40.494Z,5.92
2019-05-23T13:10:08.729Z,4.97
2019-05-23T13:12:37.135Z,5.00
2019-05-23T13:15:08.635Z,5.30
2019-05-23T13:17:36.906Z,5.77
2019-05-23T13:20:08.020Z,5.80
2019-05-23T13:22:36.568Z,4.53
2019-05-23T13:25:06.410Z,5.47
2019-05-23T13:27:34.997Z,5.92
2019-05-23T13:30:04.359Z,5.30
2019-05-23T13:32:32.884Z,4.20
2019-05-23T13:35:01.121Z,4.42
2019-05-23T13:37:29.411Z,4.78
2019-05-23T13:39:57.660Z,5.22
2019-05-23T13:42:26.698Z,5.25
2019-05-23T13:44:55.078Z,4.45
2019-05-23T13:47:23.295Z,4.72
2019-05-23T13:49:51.526Z,5.90
2019-05-23T13:52:19.763Z,4.03
2019-05-23T13:54:48.024Z,7.30
2019-05-23T13:57:16.461Z,7.22
2019-05-23T13:59:44.724Z,4.83
2019-05-23T14:02:12.966Z,3.85
2019-05-23T14:04:41.176Z,4.50
2019-05-23T14:07:10.129Z,4.45
2019-05-23T14:09:38.736Z,4.33
2019-05-23T14:12:20.797Z,4.22
2019-05-23T14:14:36.911Z,5.07
2019-05-23T14:17:15.681Z,5.15
2019-05-23T14:19:44.182Z,4.92
2019-05-23T14:22:12.402Z,4.05
2019-05-23T14:24:40.641Z,5.05
2019-05-23T14:27:22.567Z,4.95
2019-05-23T14:29:50.809Z,3.83
2019-05-23T14:32:20.662Z,4.42
2019-05-23T14:34:49.050Z,4.83
2019-05-23T14:37:18.929Z,4.33
2019-05-23T14:39:47.905Z,4.17
2019-05-23T14:42:33.187Z,4.95
2019-05-23T14:45:01.417Z,5.28
2019-05-23T14:47:47.958Z,6.00
2019-05-23T14:50:34.407Z,4.28
2019-05-23T14:53:04.344Z,4.92
2019-05-23T14:55:33.058Z,3.55
2019-05-23T14:58:01.682Z,4.03
2019-05-23T15:00:30.175Z,4.83
2019-05-23T15:02:58.450Z,4.67
2019-05-23T15:05:26.877Z,4.42
2019-05-23T15:07:55.104Z,3.87
2019-05-23T15:10:23.397Z,5.00
2019-05-23T15:12:51.608Z,5.62
2019-05-23T15:15:20.098Z,4.17
2019-05-23T15:17:48.329Z,4.40
2019-05-23T15:20:16.758Z,3.75
2019-05-23T15:22:44.982Z,6.28
2019-05-23T15:25:13.173Z,5.25
2019-05-23T15:27:41.410Z,4.85
2019-05-23T15:30:09.619Z,4.87
2019-05-23T15:32:37.884Z,4.93
2019-05-23T15:35:06.102Z,5.80
2019-05-23T15:37:34.317Z,3.62
2019-05-23T15:40:02.545Z,5.28
2019-05-23T15:42:30.782Z,3.53
2019-05-23T15:44:59.040Z,4.97
2019-05-23T15:47:28.863Z,5.83
2019-05-23T15:49:58.741Z,4.67
2019-05-23T15:52:44.691Z,3.80
2019-05-23T15:55:30.589Z,5.80
2019-05-23T15:58:00.476Z,3.27
2019-05-23T16:00:42.033Z,4.30
2019-05-23T16:03:31.274Z,3.33
2019-05-23T16:05:58.347Z,4.58
2019-05-23T16:08:26.631Z,3.95
2019-05-23T16:10:54.985Z,4.37
2019-05-23T16:13:23.488Z,4.83
2019-05-23T16:15:51.710Z,3.62
2019-05-23T16:18:20.333Z,4.87
2019-05-23T16:20:48.523Z,4.00
2019-05-23T16:23:16.765Z,3.60
2019-05-23T16:25:45.016Z,5.67
2019-05-23T16:28:13.258Z,3.45
2019-05-23T16:30:41.502Z,3.45
2019-05-23T16:33:09.775Z,3.72
2019-05-23T16:35:38.065Z,3.93
2019-05-23T16:38:06.349Z,2.75
2019-05-23T16:40:34.553Z,3.52
2019-05-23T16:43:02.778Z,4.20
2019-05-23T16:45:31.189Z,3.40
2019-05-23T16:47:59.407Z,3.62
2019-05-23T16:50:27.640Z,4.62
2019-05-23T16:52:55.884Z,7.20
2019-05-23T16:55:41.896Z,4.47
2019-05-23T16:58:11.779Z,3.62
2019-05-23T17:00:47.624Z,4.92
2019-05-23T17:03:17.497Z,3.30
2019-05-23T17:05:53.316Z,5.83
2019-05-23T17:08:23.181Z,3.67
2019-05-23T17:10:53.055Z,5.60
2019-05-23T17:13:29.276Z,3.87
2019-05-23T17:16:05.280Z,3.58
2019-05-23T17:18:40.912Z,4.28
2019-05-23T17:21:10.778Z,3.45
2019-05-23T17:23:43.331Z,5.23
2019-05-23T17:26:13.187Z,3.35
2019-05-23T17:28:48.979Z,3.42
2019-05-23T17:31:18.951Z,3.40
2019-05-23T17:33:47.178Z,3.50
2019-05-23T17:36:15.400Z,4.62
2019-05-23T17:38:43.677Z,3.75
2019-05-23T17:41:11.928Z,3.87
2019-05-23T17:43:40.307Z,4.33
2019-05-23T17:46:08.537Z,2.70
2019-05-23T17:48:36.757Z,4.95
2019-05-23T17:51:04.994Z,3.15
2019-05-23T17:53:33.208Z,3.67
2019-05-23T17:56:01.818Z,4.28
2019-05-23T17:58:30.308Z,4.03
2019-05-23T18:00:59.082Z,3.72
2019-05-23T18:03:28.278Z,3.90
2019-05-23T18:05:56.970Z,3.85
2019-05-23T18:08:25.546Z,4.35
2019-05-23T18:10:54.324Z,5.03
2019-05-23T18:13:23.238Z,4.35
2019-05-23T18:15:51.818Z,4.85
2019-05-23T18:18:20.533Z,4.05
2019-05-23T18:20:49.495Z,3.77
2019-05-23T18:23:17.710Z,2.55
2019-05-23T18:25:46.241Z,5.05
2019-05-23T18:28:14.458Z,3.35
2019-05-23T18:30:50.047Z,3.00
2019-05-23T18:33:18.965Z,4.17
2019-05-23T18:35:48.173Z,3.58
2019-05-23T18:38:16.754Z,2.95
2019-05-23T18:41:00.008Z,2.80
2019-05-23T18:43:15.382Z,2.40
2019-05-23T18:45:44.782Z,4.40
2019-05-23T18:48:13.086Z,3.35
2019-05-23T18:50:41.341Z,3.87
2019-05-23T18:53:09.923Z,3.62
2019-05-23T18:55:38.990Z,4.95
2019-05-23T18:58:07.695Z,4.87
2019-05-23T19:00:54.261Z,4.17
2019-05-23T19:03:23.021Z,5.75
2019-05-23T19:05:51.774Z,5.33
2019-05-23T19:08:21.118Z,4.48
2019-05-23T19:10:49.702Z,6.15
2019-05-23T19:13:17.951Z,4.78
2019-05-23T19:15:46.189Z,3.45
2019-05-23T19:18:14.898Z,5.20
2019-05-23T19:20:43.145Z,6.20
2019-05-23T19:23:11.968Z,8.90
2019-05-23T19:25:40.212Z,7.55
2019-05-23T19:28:08.983Z,5.67
2019-05-23T19:30:37.606Z,4.75
2019-05-23T19:33:07.283Z,4.55
2019-05-23T19:35:37.340Z,4.70
2019-05-23T19:38:06.511Z,3.40
2019-05-23T19:40:35.948Z,3.92
2019-05-23T19:43:04.552Z,4.85
2019-05-23T19:45:32.958Z,5.50
2019-05-23T19:48:01.228Z,4.67
2019-05-23T19:50:29.620Z,5.90
2019-05-23T19:52:57.877Z,20.25
2019-05-23T19:55:26.692Z,5.92
2019-05-23T19:57:55.592Z,7.67
2019-05-23T20:00:25.431Z,4.22
2019-05-23T20:02:55.582Z,3.67
2019-05-23T20:05:34.491Z,6.47
2019-05-23T20:08:02.787Z,6.90
2019-05-23T20:10:31.499Z,7.33
2019-05-23T20:12:59.730Z,5.05
2019-05-23T20:15:28.153Z,6.03
2019-05-23T20:17:56.402Z,4.80
2019-05-23T20:20:25.110Z,4.62
2019-05-23T20:22:53.343Z,6.62
2019-05-23T20:25:21.619Z,6.20
2019-05-23T20:27:49.847Z,5.55
2019-05-23T20:30:43.062Z,5.53
2019-05-23T20:33:11.295Z,5.83
2019-05-23T20:35:39.510Z,5.93
2019-05-23T20:38:07.756Z,6.97
2019-05-23T20:40:36.060Z,6.83
2019-05-23T20:43:04.537Z,7.40
2019-05-23T20:45:33.389Z,9.90
2019-05-23T20:48:01.643Z,6.72
2019-05-23T20:50:29.876Z,8.17
2019-05-23T20:52:58.260Z,7.28
2019-05-23T20:55:26.476Z,8.15
2019-05-23T20:57:54.715Z,8.98
2019-05-23T21:00:33.590Z,7.08
2019-05-23T21:03:02.407Z,5.53
2019-05-23T21:05:30.652Z,8.23
2019-05-23T21:07:58.870Z,9.40
2019-05-23T21:10:45.458Z,7.70
2019-05-23T21:13:13.678Z,5.05
2019-05-23T21:15:41.892Z,5.20
2019-05-23T21:18:10.145Z,6.37
2019-05-23T21:20:38.418Z,6.53
2019-05-23T21:23:06.662Z,6.20
2019-05-23T21:25:36.635Z,6.40
2019-05-23T21:28:04.860Z,6.25
2019-05-23T21:30:33.090Z,6.30
2019-05-23T21:33:03.186Z,5.87
2019-05-23T21:35:31.892Z,5.63
2019-05-23T21:38:00.166Z,10.70
2019-05-23T21:40:37.899Z,5.62
2019-05-23T21:43:06.122Z,8.65
2019-05-23T21:45:34.401Z,7.35
2019-05-23T21:48:02.698Z,8.18
2019-05-23T21:50:31.277Z,5.97
2019-05-23T21:52:59.596Z,5.17
2019-05-23T21:55:40.111Z,7.33
2019-05-23T21:58:08.863Z,7.00
2019-05-23T22:01:06.191Z,5.58
2019-05-23T22:03:52.762Z,5.25
2019-05-23T22:06:34.632Z,4.60
2019-05-23T22:09:04.476Z,4.83
2019-05-23T22:11:32.683Z,5.72
2019-05-23T22:14:00.917Z,6.55
2019-05-23T22:16:29.171Z,6.37
2019-05-23T22:18:57.507Z,5.60
2019-05-23T22:21:25.938Z,5.85
2019-05-23T22:23:54.225Z,7.62
2019-05-23T22:26:22.622Z,5.83
2019-05-23T22:28:50.895Z,4.90
2019-05-23T22:31:19.962Z,5.78
2019-05-23T22:33:49.829Z,5.22
2019-05-23T22:36:18.713Z,5.57
2019-05-23T22:38:47.107Z,6.20
2019-05-23T22:41:15.396Z,7.28
2019-05-23T22:43:43.638Z,6.40
2019-05-23T22:46:11.848Z,8.55
2019-05-23T22:48:40.061Z,4.70
2019-05-23T22:51:08.283Z,7.92
2019-05-23T22:53:36.513Z,6.07
2019-05-23T22:56:05.009Z,7.53
2019-05-23T22:58:33.251Z,6.08
2019-05-23T23:01:01.533Z,5.95
2019-05-23T23:03:29.761Z,7.47
2019-05-23T23:05:57.977Z,9.55
2019-05-23T23:08:27.480Z,9.63
2019-05-23T23:10:55.743Z,9.70
2019-05-23T23:13:37.725Z,9.73
2019-05-23T23:15:54.565Z,10.00
2019-05-23T23:18:22.825Z,12.63
2019-05-23T23:20:51.042Z,10.98
2019-05-23T23:23:19.320Z,12.80
2019-05-23T23:25:47.545Z,11.05
2019-05-23T23:28:15.777Z,11.85
2019-05-23T23:30:45.635Z,11.68
2019-05-23T23:33:13.877Z,14.10
2019-05-23T23:35:42.105Z,15.60
2019-05-23T23:38:10.585Z,16.70
2019-05-23T23:40:38.812Z,16.75
2019-05-23T23:43:07.045Z,16.05
2019-05-23T23:45:53.073Z,13.95
2019-05-23T23:48:39.322Z,17.70
2019-05-23T23:51:25.111Z,17.00
2019-05-23T23:54:11.020Z,18.40
2019-05-23T23:56:57.303Z,16.27
2019-05-23T23:59:24.761Z,19.35
